createdAt,value
2022-11-07T00:00:16.794Z,89.79
2022-11-07T00:03:19.081Z,89.12
2022-11-07T00:06:21.343Z,89.17
2022-11-07T00:09:23.633Z,89.52
2022-11-07T00:12:25.676Z,89.99
2022-11-07T00:15:27.434Z,91.05
2022-11-07T00:18:29.139Z,91.82
2022-11-07T00:21:31.145Z,90.83
2022-11-07T00:24:32.871Z,91.38
2022-11-07T00:27:34.712Z,91.42
2022-11-07T00:30:36.597Z,91.24
2022-11-07T00:33:39.799Z,91.72
2022-11-07T00:36:41.758Z,90.92
2022-11-07T00:39:43.577Z,90.99
2022-11-07T00:42:45.663Z,90.50
2022-11-07T00:45:47.518Z,91.86
2022-11-07T00:48:49.485Z,91.05
2022-11-07T00:51:51.411Z,90.89
2022-11-07T00:54:53.150Z,89.75
2022-11-07T00:57:55.881Z,89.98
2022-11-07T01:00:58.147Z,89.21
2022-11-07T01:04:18.694Z,90.67
2022-11-07T01:07:21.115Z,90.85
2022-11-07T01:10:22.938Z,91.53
2022-11-07T01:13:25.563Z,90.73
2022-11-07T01:16:28.747Z,90.09
2022-11-07T01:19:30.817Z,90.48
2022-11-07T01:22:32.707Z,90.91
2022-11-07T01:25:37.968Z,90.44
2022-11-07T01:28:40.412Z,90.76
2022-11-07T01:31:42.302Z,90.85
2022-11-07T01:34:44.153Z,91.08
2022-11-07T01:37:45.864Z,91.46
2022-11-07T01:41:06.038Z,91.25
2022-11-07T01:44:07.894Z,89.70
2022-11-07T01:47:11.056Z,91.03
2022-11-07T01:50:32.672Z,90.13
2022-11-07T01:53:35.456Z,90.40
2022-11-07T01:56:40.158Z,89.37
2022-11-07T01:59:42.205Z,90.14
2022-11-07T02:02:46.554Z,89.83
2022-11-07T02:06:01.169Z,89.00
2022-11-07T02:09:03.504Z,90.17
2022-11-07T02:12:05.503Z,89.86
2022-11-07T02:15:09.074Z,89.46
2022-11-07T02:18:10.988Z,89.56
2022-11-07T02:21:21.346Z,88.88
2022-11-07T02:24:32.395Z,88.75
2022-11-07T02:27:35.013Z,89.11
2022-11-07T02:30:37.185Z,88.52
2022-11-07T02:33:39.160Z,88.15
2022-11-07T02:36:41.493Z,88.00
2022-11-07T02:39:43.576Z,88.31
2022-11-07T02:42:45.731Z,88.20
2022-11-07T02:45:48.630Z,88.58
2022-11-07T02:48:53.816Z,89.74
2022-11-07T02:51:55.612Z,89.22
2022-11-07T02:54:57.387Z,89.51
2022-11-07T02:57:59.297Z,89.42
2022-11-07T03:01:03.159Z,90.74
2022-11-07T03:04:04.921Z,89.89
2022-11-07T03:07:06.791Z,90.15
2022-11-07T03:10:09.866Z,90.31
2022-11-07T03:13:12.159Z,89.92
2022-11-07T03:16:14.785Z,90.54
2022-11-07T03:19:16.653Z,90.30
2022-11-07T03:22:18.587Z,90.22
2022-11-07T03:25:20.514Z,90.27
2022-11-07T03:28:24.909Z,89.69
2022-11-07T03:31:26.835Z,89.47
2022-11-07T03:34:28.730Z,90.01
2022-11-07T03:37:30.510Z,89.99
2022-11-07T03:40:32.222Z,89.67
2022-11-07T03:43:33.970Z,89.46
2022-11-07T03:46:35.668Z,89.08
2022-11-07T03:49:37.374Z,89.47
2022-11-07T03:52:39.193Z,90.18
2022-11-07T03:55:42.710Z,89.96
2022-11-07T03:58:44.590Z,89.48
2022-11-07T04:01:46.644Z,89.18
2022-11-07T04:04:48.368Z,88.19
2022-11-07T04:07:50.086Z,88.80
2022-11-07T04:10:51.923Z,88.38
2022-11-07T04:14:12.386Z,89.23
2022-11-07T04:17:20.282Z,87.65
2022-11-07T04:20:22.192Z,87.53
2022-11-07T04:23:23.915Z,88.07
2022-11-07T04:26:44.496Z,87.08
2022-11-07T04:29:46.300Z,86.36
2022-11-07T04:32:49.764Z,85.53
2022-11-07T04:35:51.708Z,86.13
2022-11-07T04:38:53.489Z,86.01
2022-11-07T04:41:56.625Z,85.60
2022-11-07T04:44:58.540Z,86.49
2022-11-07T04:48:00.247Z,86.11
2022-11-07T04:51:02.051Z,85.68
2022-11-07T04:54:04.053Z,85.90
2022-11-07T04:57:05.723Z,85.68
2022-11-07T05:00:08.195Z,85.25
2022-11-07T05:03:10.375Z,85.62
2022-11-07T05:06:14.446Z,85.64
2022-11-07T05:09:20.508Z,85.61
2022-11-07T05:12:22.297Z,85.27
2022-11-07T05:15:24.450Z,85.36
2022-11-07T05:18:26.249Z,85.20
2022-11-07T05:21:28.407Z,85.16
2022-11-07T05:24:31.181Z,84.27
2022-11-07T05:27:33.096Z,84.74
2022-11-07T05:30:38.620Z,83.76
2022-11-07T05:33:40.538Z,84.39
2022-11-07T05:36:42.332Z,85.34
2022-11-07T05:39:44.223Z,85.09
2022-11-07T05:42:46.184Z,84.51
2022-11-07T05:45:47.954Z,84.41
2022-11-07T05:49:00.528Z,85.15
2022-11-07T05:52:03.023Z,85.91
2022-11-07T05:55:05.817Z,85.63
2022-11-07T05:58:10.341Z,85.33
2022-11-07T06:01:12.229Z,85.21
2022-11-07T06:04:16.845Z,85.95
2022-11-07T06:07:18.701Z,85.39
2022-11-07T06:10:20.724Z,85.26
2022-11-07T06:13:22.658Z,84.88
2022-11-07T06:16:25.054Z,85.49
2022-11-07T06:19:27.845Z,86.75
2022-11-07T06:22:31.101Z,86.32
2022-11-07T06:25:33.692Z,85.96
2022-11-07T06:28:37.034Z,86.32
2022-11-07T06:31:39.477Z,86.03
2022-11-07T06:34:41.606Z,86.25
2022-11-07T06:37:43.582Z,87.38
2022-11-07T06:40:45.708Z,88.67
2022-11-07T06:43:51.125Z,88.77
2022-11-07T06:46:53.288Z,88.40
2022-11-07T06:49:55.385Z,87.25
2022-11-07T06:53:07.849Z,86.62
2022-11-07T06:56:14.289Z,85.97
2022-11-07T06:59:16.414Z,85.73
2022-11-07T07:02:37.267Z,86.03
2022-11-07T07:05:40.631Z,86.82
2022-11-07T07:08:43.953Z,85.83
2022-11-07T07:11:46.437Z,85.73
2022-11-07T07:14:48.573Z,85.70
2022-11-07T07:17:50.481Z,85.98
2022-11-07T07:20:52.917Z,86.29
2022-11-07T07:23:55.050Z,86.45
2022-11-07T07:26:57.025Z,86.61
2022-11-07T07:29:59.328Z,86.32
2022-11-07T07:33:01.213Z,86.59
2022-11-07T07:36:03.607Z,86.91
2022-11-07T07:39:05.967Z,86.64
2022-11-07T07:42:08.259Z,86.00
2022-11-07T07:45:12.012Z,86.71
2022-11-07T07:48:15.893Z,87.47
2022-11-07T07:51:17.774Z,87.77
2022-11-07T07:54:19.679Z,88.65
2022-11-07T07:57:21.871Z,89.72
2022-11-07T08:00:23.650Z,90.95
2022-11-07T08:03:32.170Z,91.63
2022-11-07T08:06:42.216Z,91.89
2022-11-07T08:09:44.146Z,90.07
2022-11-07T08:12:47.802Z,89.98
2022-11-07T08:15:50.672Z,88.82
2022-11-07T08:18:52.687Z,89.85
2022-11-07T08:21:54.672Z,88.73
2022-11-07T08:24:56.514Z,88.26
2022-11-07T08:27:58.578Z,87.68
2022-11-07T08:31:03.682Z,87.11
2022-11-07T08:34:05.815Z,86.75
2022-11-07T08:37:08.134Z,86.58
2022-11-07T08:40:11.115Z,85.72
2022-11-07T08:43:13.440Z,85.53
2022-11-07T08:46:16.066Z,85.37
2022-11-07T08:49:18.039Z,85.08
2022-11-07T08:52:20.186Z,84.43
2022-11-07T08:55:22.353Z,84.88
2022-11-07T08:58:28.850Z,85.83
2022-11-07T09:01:32.584Z,85.11
2022-11-07T09:04:35.168Z,86.18
2022-11-07T09:07:40.607Z,85.27
2022-11-07T09:10:42.653Z,84.00
2022-11-07T09:13:47.372Z,84.33
2022-11-07T09:16:49.342Z,84.37
2022-11-07T09:19:51.230Z,84.28
2022-11-07T09:22:56.896Z,84.71
2022-11-07T09:26:01.518Z,84.53
2022-11-07T09:29:04.624Z,84.23
2022-11-07T09:32:23.664Z,83.74
2022-11-07T09:35:28.931Z,83.02
2022-11-07T09:38:31.253Z,83.80
2022-11-07T09:42:14.552Z,82.18
2022-11-07T09:45:16.901Z,84.88
2022-11-07T09:48:23.820Z,84.05
2022-11-07T09:51:34.661Z,84.80
2022-11-07T09:54:39.517Z,84.72
2022-11-07T09:57:42.059Z,82.70
2022-11-07T10:00:44.235Z,82.53
2022-11-07T10:04:18.074Z,82.80
2022-11-07T10:07:14.489Z,82.14
2022-11-07T10:10:47.527Z,82.53
2022-11-07T10:14:07.452Z,83.06
2022-11-07T10:17:36.516Z,81.92
2022-11-07T10:21:35.846Z,84.13
2022-11-07T10:24:41.341Z,83.95
2022-11-07T10:27:47.389Z,84.88
2022-11-07T10:30:52.692Z,84.65
2022-11-07T10:34:15.908Z,83.76
2022-11-07T10:37:17.966Z,84.00
2022-11-07T10:40:22.230Z,84.94
2022-11-07T10:43:35.924Z,83.50
2022-11-07T10:46:43.421Z,81.96
2022-11-07T10:49:56.410Z,82.92
2022-11-07T10:53:00.304Z,83.53
2022-11-07T10:56:10.238Z,82.69
2022-11-07T10:59:30.090Z,83.81
2022-11-07T11:02:47.128Z,83.78
2022-11-07T11:05:50.481Z,82.85
2022-11-07T11:08:53.184Z,81.19
2022-11-07T11:11:56.066Z,80.69
2022-11-07T11:15:22.952Z,78.15
2022-11-07T11:18:26.079Z,79.31
2022-11-07T11:21:48.235Z,79.26
2022-11-07T11:25:20.603Z,80.42
2022-11-07T11:28:45.595Z,79.78
2022-11-07T11:31:51.239Z,78.86
2022-11-07T11:35:02.444Z,80.64
2022-11-07T11:38:32.113Z,80.80
2022-11-07T11:41:37.613Z,80.56
2022-11-07T11:44:41.846Z,79.92
2022-11-07T11:47:51.262Z,78.10
2022-11-07T11:50:57.444Z,78.13
2022-11-07T11:54:00.324Z,80.12
2022-11-07T11:57:06.208Z,77.66
2022-11-07T12:00:17.420Z,78.20
2022-11-07T12:03:27.129Z,78.95
2022-11-07T12:06:35.908Z,78.79
2022-11-07T12:09:56.377Z,78.08
2022-11-07T12:13:01.780Z,78.71
2022-11-07T12:16:14.183Z,77.01
2022-11-07T12:19:47.823Z,77.69
2022-11-07T12:23:01.705Z,77.63
2022-11-07T12:26:13.858Z,77.02
2022-11-07T12:29:35.587Z,78.29
2022-11-07T12:32:37.560Z,78.01
2022-11-07T12:35:46.931Z,77.84
2022-11-07T12:39:04.107Z,78.48
2022-11-07T12:42:41.212Z,77.10
2022-11-07T12:46:12.719Z,78.51
2022-11-07T12:49:29.924Z,77.10
2022-11-07T12:52:50.298Z,77.59
2022-11-07T12:55:58.458Z,78.57
2022-11-07T12:59:04.808Z,79.24
2022-11-07T13:02:13.617Z,78.28
2022-11-07T13:05:24.855Z,79.59
2022-11-07T13:08:55.325Z,76.96
2022-11-07T13:12:00.672Z,77.59
2022-11-07T13:15:05.752Z,77.34
2022-11-07T13:18:24.957Z,76.76
2022-11-07T13:21:27.247Z,77.61
2022-11-07T13:24:29.991Z,77.34
2022-11-07T13:27:40.511Z,77.58
2022-11-07T13:30:57.865Z,76.50
2022-11-07T13:34:10.005Z,76.51
2022-11-07T13:37:28.281Z,78.20
2022-11-07T13:40:47.655Z,78.74
2022-11-07T13:43:56.388Z,78.63
2022-11-07T13:47:03.107Z,77.98
2022-11-07T13:50:18.377Z,78.82
2022-11-07T13:53:37.892Z,78.31
2022-11-07T13:56:57.566Z,79.28
2022-11-07T14:00:06.965Z,79.63
2022-11-07T14:03:25.328Z,80.11
2022-11-07T14:06:27.763Z,80.39
2022-11-07T14:09:32.280Z,80.68
2022-11-07T14:12:38.281Z,80.63
2022-11-07T14:16:07.752Z,80.53
2022-11-07T14:19:17.077Z,80.69
2022-11-07T14:22:27.783Z,81.64
2022-11-07T14:25:32.695Z,82.48
2022-11-07T14:28:37.214Z,82.29
2022-11-07T14:31:39.612Z,82.85
2022-11-07T14:34:45.586Z,82.43
2022-11-07T14:37:48.462Z,82.37
2022-11-07T14:40:50.890Z,82.69
2022-11-07T14:43:53.378Z,83.01
2022-11-07T14:46:56.226Z,82.90
2022-11-07T14:49:59.229Z,81.66
2022-11-07T14:53:25.326Z,82.21
2022-11-07T14:56:38.089Z,82.31
2022-11-07T14:59:40.976Z,83.04
2022-11-07T15:02:46.518Z,83.74
2022-11-07T15:05:49.017Z,84.30
2022-11-07T15:09:00.272Z,83.81
2022-11-07T15:12:03.445Z,84.21
2022-11-07T15:15:16.086Z,84.20
2022-11-07T15:18:26.997Z,84.07
2022-11-07T15:21:38.706Z,84.62
2022-11-07T15:24:46.498Z,83.96
2022-11-07T15:27:48.586Z,84.86
2022-11-07T15:30:51.831Z,85.59
2022-11-07T15:33:55.924Z,85.01
2022-11-07T15:36:58.513Z,84.53
2022-11-07T15:40:01.122Z,84.01
2022-11-07T15:43:03.658Z,85.05
2022-11-07T15:46:38.535Z,84.63
2022-11-07T15:49:40.667Z,84.78
2022-11-07T15:52:43.589Z,84.93
2022-11-07T15:55:46.628Z,85.55
2022-11-07T15:58:49.510Z,85.96
2022-11-07T16:01:52.996Z,86.17
2022-11-07T16:04:56.389Z,86.55
2022-11-07T16:08:00.283Z,86.38
2022-11-07T16:11:03.005Z,86.79
2022-11-07T16:14:34.555Z,85.82
2022-11-07T16:17:28.490Z,85.86
2022-11-07T16:20:33.887Z,85.67
2022-11-07T16:23:36.279Z,86.22
2022-11-07T16:26:38.951Z,86.32
2022-11-07T16:29:41.837Z,86.20
2022-11-07T16:32:44.346Z,86.07
2022-11-07T16:35:51.033Z,85.94
2022-11-07T16:38:53.356Z,86.19
2022-11-07T16:41:56.168Z,86.97
2022-11-07T16:44:59.800Z,87.06
2022-11-07T16:48:02.998Z,85.69
2022-11-07T16:51:07.922Z,86.58
2022-11-07T16:54:10.765Z,87.43
2022-11-07T16:57:14.687Z,87.09
2022-11-07T17:00:24.515Z,86.40
2022-11-07T17:03:27.735Z,86.85
2022-11-07T17:06:34.532Z,86.12
2022-11-07T17:09:36.531Z,86.82
2022-11-07T17:12:38.726Z,87.32
2022-11-07T17:15:42.047Z,86.68
2022-11-07T17:18:44.463Z,88.31
2022-11-07T17:21:49.476Z,86.33
2022-11-07T17:24:51.687Z,86.21
2022-11-07T17:27:53.955Z,86.59
2022-11-07T17:30:56.045Z,85.65
2022-11-07T17:33:58.486Z,85.90
2022-11-07T17:37:01.524Z,86.19
2022-11-07T17:40:05.203Z,85.83
2022-11-07T17:43:07.192Z,86.24
2022-11-07T17:46:13.581Z,86.61
2022-11-07T17:49:17.422Z,85.86
2022-11-07T17:52:19.466Z,86.31
2022-11-07T17:55:22.036Z,86.20
2022-11-07T17:58:24.030Z,86.79
2022-11-07T18:01:29.502Z,85.95
2022-11-07T18:04:31.771Z,86.18
2022-11-07T18:07:34.076Z,86.72
2022-11-07T18:10:36.268Z,85.50
2022-11-07T18:13:39.035Z,86.15
2022-11-07T18:16:41.218Z,86.53
2022-11-07T18:19:43.281Z,86.31
2022-11-07T18:22:45.687Z,86.66
2022-11-07T18:25:48.047Z,86.54
2022-11-07T18:28:50.384Z,86.36
2022-11-07T18:31:52.805Z,87.93
2022-11-07T18:34:55.432Z,87.84
2022-11-07T18:37:57.683Z,87.38
2022-11-07T18:41:03.111Z,88.25
2022-11-07T18:44:05.625Z,88.90
2022-11-07T18:47:08.423Z,88.50
2022-11-07T18:50:11.534Z,88.03
2022-11-07T18:53:13.732Z,88.31
2022-11-07T18:56:16.563Z,88.69
2022-11-07T18:59:19.174Z,88.95
2022-11-07T19:02:21.180Z,87.94
2022-11-07T19:05:24.088Z,87.02
2022-11-07T19:08:32.913Z,87.34
2022-11-07T19:11:35.378Z,87.18
2022-11-07T19:14:38.071Z,87.47
2022-11-07T19:17:40.940Z,88.10
2022-11-07T19:20:44.174Z,89.26
2022-11-07T19:23:46.775Z,89.84
2022-11-07T19:26:49.035Z,90.20
2022-11-07T19:29:51.489Z,90.34
2022-11-07T19:32:54.546Z,90.19
2022-11-07T19:36:02.078Z,89.56
2022-11-07T19:39:04.759Z,89.56
2022-11-07T19:42:07.247Z,89.75
2022-11-07T19:45:10.141Z,90.78
2022-11-07T19:48:12.609Z,89.56
2022-11-07T19:51:21.225Z,89.60
2022-11-07T19:54:24.727Z,90.17
2022-11-07T19:57:27.799Z,90.32
2022-11-07T20:00:30.684Z,90.01
2022-11-07T20:03:35.421Z,89.95
2022-11-07T20:06:38.955Z,91.05
2022-11-07T20:09:42.035Z,90.76
2022-11-07T20:12:44.341Z,90.78
2022-11-07T20:15:46.509Z,91.15
2022-11-07T20:18:49.285Z,91.47
2022-11-07T20:21:51.487Z,91.19
2022-11-07T20:24:53.509Z,91.43
2022-11-07T20:27:55.653Z,91.93
2022-11-07T20:30:58.270Z,91.89
2022-11-07T20:34:02.525Z,93.12
2022-11-07T20:37:04.729Z,92.80
2022-11-07T20:40:07.733Z,92.37
2022-11-07T20:43:10.030Z,92.69
2022-11-07T20:46:17.704Z,93.67
2022-11-07T20:49:21.559Z,92.97
2022-11-07T20:52:24.183Z,92.10
2022-11-07T20:55:26.265Z,91.72
2022-11-07T20:58:28.048Z,91.34
2022-11-07T21:01:37.913Z,91.60
2022-11-07T21:05:03.110Z,92.09
2022-11-07T21:08:02.304Z,92.02
2022-11-07T21:11:04.345Z,92.34
2022-11-07T21:14:06.644Z,94.74
2022-11-07T21:17:10.050Z,94.01
2022-11-07T21:20:15.863Z,93.44
2022-11-07T21:23:18.545Z,92.13
2022-11-07T21:26:24.183Z,92.70
2022-11-07T21:29:29.516Z,92.96
2022-11-07T21:32:33.251Z,92.03
2022-11-07T21:35:35.129Z,93.28
2022-11-07T21:38:39.841Z,92.94
2022-11-07T21:41:42.013Z,91.82
2022-11-07T21:44:43.984Z,91.83
2022-11-07T21:47:46.294Z,92.38
2022-11-07T21:50:48.294Z,92.73
2022-11-07T21:53:50.386Z,91.62
2022-11-07T21:56:52.316Z,92.37
2022-11-07T21:59:54.209Z,91.87
2022-11-07T22:02:56.180Z,92.61
2022-11-07T22:05:58.203Z,93.74
2022-11-07T22:09:00.525Z,92.87
2022-11-07T22:12:02.332Z,93.18
2022-11-07T22:15:04.877Z,93.68
2022-11-07T22:18:06.994Z,94.99
2022-11-07T22:21:10.970Z,94.23
2022-11-07T22:24:12.809Z,94.16
2022-11-07T22:27:14.719Z,94.48
2022-11-07T22:30:16.663Z,94.06
2022-11-07T22:33:19.358Z,93.48
2022-11-07T22:36:21.771Z,93.46
2022-11-07T22:39:23.591Z,93.62
2022-11-07T22:42:25.649Z,93.35
2022-11-07T22:45:28.356Z,93.78
2022-11-07T22:48:30.562Z,93.60
2022-11-07T22:51:34.528Z,93.27
2022-11-07T22:54:36.541Z,93.53
2022-11-07T22:57:38.342Z,92.64
2022-11-07T23:00:40.182Z,93.05
2022-11-07T23:03:42.222Z,93.15
2022-11-07T23:06:44.721Z,94.16
2022-11-07T23:09:46.649Z,94.62
2022-11-07T23:12:48.539Z,94.66
2022-11-07T23:15:50.383Z,94.67
2022-11-07T23:18:52.515Z,94.57
2022-11-07T23:21:59.742Z,92.82
2022-11-07T23:25:02.148Z,93.06
2022-11-07T23:28:07.559Z,92.70
2022-11-07T23:31:09.811Z,92.85
2022-11-07T23:34:12.381Z,93.63
2022-11-07T23:37:14.179Z,92.51
2022-11-07T23:40:16.313Z,92.64
2022-11-07T23:43:18.180Z,92.07
2022-11-07T23:46:38.926Z,92.14
2022-11-07T23:49:59.492Z,91.96
2022-11-07T23:53:21.318Z,92.30
2022-11-07T23:56:26.081Z,92.15
2022-11-07T23:59:46.614Z,92.33
